sensor_id;sensor_type;location;lat;lon;timestamp;noise_LAeq;noise_LA_min;noise_LA_max;noise_LA01;noise_LA95
76217;Laerm;65010;50.190;18.930;2023-03-01T00:16:45;35.28;34.16;47.14;;
76217;Laerm;65010;50.190;18.930;2023-03-01T00:23:51;35.67;34.07;37.29;;
76217;Laerm;65010;50.190;18.930;2023-03-01T00:26:58;36.30;35.03;37.83;;
76217;Laerm;65010;50.190;18.930;2023-03-01T00:37:40;36.22;34.97;51.37;;
76217;Laerm;65010;50.190;18.930;2023-03-01T01:00:20;36.18;34.88;43.09;;
76217;Laerm;65010;50.190;18.930;2023-03-01T01:03:27;36.17;34.94;39.07;;
76217;Laerm;65010;50.190;18.930;2023-03-01T01:10:33;36.16;35.03;52.27;;
76217;Laerm;65010;50.190;18.930;2023-03-01T01:13:41;36.14;34.71;49.70;;
76217;Laerm;65010;50.190;18.930;2023-03-01T01:16:50;36.11;34.84;38.33;;
76217;Laerm;65010;50.190;18.930;2023-03-01T01:23:38;39.67;34.29;56.44;;
76217;Laerm;65010;50.190;18.930;2023-03-01T01:30:36;36.05;34.52;50.62;;
76217;Laerm;65010;50.190;18.930;2023-03-01T01:33:46;36.12;34.92;42.77;;
76217;Laerm;65010;50.190;18.930;2023-03-01T01:36:54;36.13;34.85;37.37;;
76217;Laerm;65010;50.190;18.930;2023-03-01T01:40:02;36.27;34.94;43.57;;
76217;Laerm;65010;50.190;18.930;2023-03-01T01:43:20;36.24;34.94;38.01;;
76217;Laerm;65010;50.190;18.930;2023-03-01T01:46:32;36.18;34.99;37.37;;
76217;Laerm;65010;50.190;18.930;2023-03-01T01:49:47;36.26;35.04;37.51;;
76217;Laerm;65010;50.190;18.930;2023-03-01T01:52:55;36.20;35.02;39.12;;
76217;Laerm;65010;50.190;18.930;2023-03-01T01:56:03;35.60;33.83;42.72;;
76217;Laerm;65010;50.190;18.930;2023-03-01T01:59:14;35.16;33.78;40.55;;
76217;Laerm;65010;50.190;18.930;2023-03-01T02:02:21;35.93;33.97;45.17;;
76217;Laerm;65010;50.190;18.930;2023-03-01T02:05:40;36.26;34.93;55.37;;
76217;Laerm;65010;50.190;18.930;2023-03-01T02:09:03;36.20;34.99;37.59;;
76217;Laerm;65010;50.190;18.930;2023-03-01T02:12:12;36.36;34.99;40.02;;
76217;Laerm;65010;50.190;18.930;2023-03-01T02:15:19;36.40;35.08;38.08;;
76217;Laerm;65010;50.190;18.930;2023-03-01T02:18:26;36.44;35.14;37.82;;
76217;Laerm;65010;50.190;18.930;2023-03-01T02:21:52;36.45;35.23;37.98;;
76217;Laerm;65010;50.190;18.930;2023-03-01T02:28:42;35.52;34.02;44.23;;
76217;Laerm;65010;50.190;18.930;2023-03-01T02:31:54;35.51;33.97;44.42;;
76217;Laerm;65010;50.190;18.930;2023-03-01T02:35:03;36.16;34.56;37.40;;
76217;Laerm;65010;50.190;18.930;2023-03-01T02:38:10;36.21;35.06;49.66;;
76217;Laerm;65010;50.190;18.930;2023-03-01T02:41:21;44.07;34.93;64.23;;
76217;Laerm;65010;50.190;18.930;2023-03-01T02:44:31;36.66;35.13;39.30;;
76217;Laerm;65010;50.190;18.930;2023-03-01T02:47:38;36.30;35.05;37.50;;
76217;Laerm;65010;50.190;18.930;2023-03-01T02:51:04;36.52;35.19;37.84;;
76217;Laerm;65010;50.190;18.930;2023-03-01T02:54:24;36.65;35.06;39.01;;
76217;Laerm;65010;50.190;18.930;2023-03-01T02:57:36;36.75;35.33;43.36;;
76217;Laerm;65010;50.190;18.930;2023-03-01T03:00:46;36.85;35.18;41.00;;
76217;Laerm;65010;50.190;18.930;2023-03-01T03:03:53;36.65;35.25;43.99;;
76217;Laerm;65010;50.190;18.930;2023-03-01T03:06:59;36.54;35.17;38.07;;
76217;Laerm;65010;50.190;18.930;2023-03-01T03:10:09;36.57;35.10;37.98;;
76217;Laerm;65010;50.190;18.930;2023-03-01T03:13:17;43.13;35.25;62.77;;
76217;Laerm;65010;50.190;18.930;2023-03-01T03:16:28;36.70;35.18;39.08;;
76217;Laerm;65010;50.190;18.930;2023-03-01T03:19:35;37.00;35.50;45.02;;
76217;Laerm;65010;50.190;18.930;2023-03-01T03:22:42;41.72;35.41;60.84;;
76217;Laerm;65010;50.190;18.930;2023-03-01T03:25:50;36.94;35.54;38.63;;
76217;Laerm;65010;50.190;18.930;2023-03-01T03:28:57;37.05;35.45;38.52;;
76217;Laerm;65010;50.190;18.930;2023-03-01T03:32:06;37.54;35.44;51.06;;
76217;Laerm;65010;50.190;18.930;2023-03-01T03:35:12;37.10;35.41;39.02;;
76217;Laerm;65010;50.190;18.930;2023-03-01T03:38:20;37.13;35.68;39.58;;
76217;Laerm;65010;50.190;18.930;2023-03-01T03:41:26;37.09;35.62;39.82;;
76217;Laerm;65010;50.190;18.930;2023-03-01T03:44:32;37.23;35.75;38.89;;
76217;Laerm;65010;50.190;18.930;2023-03-01T03:47:43;37.12;35.58;38.67;;
76217;Laerm;65010;50.190;18.930;2023-03-01T03:50:52;37.21;35.69;40.06;;
76217;Laerm;65010;50.190;18.930;2023-03-01T03:53:59;37.15;35.53;40.94;;
76217;Laerm;65010;50.190;18.930;2023-03-01T03:57:05;37.09;35.63;40.00;;
76217;Laerm;65010;50.190;18.930;2023-03-01T04:00:13;38.16;35.34;42.05;;
76217;Laerm;65010;50.190;18.930;2023-03-01T04:03:25;39.02;37.15;41.36;;
76217;Laerm;65010;50.190;18.930;2023-03-01T04:06:34;39.58;37.34;47.92;;
76217;Laerm;65010;50.190;18.930;2023-03-01T04:09:41;40.25;38.10;41.93;;
76217;Laerm;65010;50.190;18.930;2023-03-01T04:12:47;40.40;37.98;45.81;;
76217;Laerm;65010;50.190;18.930;2023-03-01T04:15:55;39.80;38.02;48.42;;
76217;Laerm;65010;50.190;18.930;2023-03-01T04:19:03;43.75;37.75;62.25;;
76217;Laerm;65010;50.190;18.930;2023-03-01T04:22:10;43.09;38.31;62.30;;
76217;Laerm;65010;50.190;18.930;2023-03-01T04:25:21;46.71;36.06;67.75;;
76217;Laerm;65010;50.190;18.930;2023-03-01T04:28:32;40.04;36.19;56.66;;
76217;Laerm;65010;50.190;18.930;2023-03-01T04:31:39;41.55;38.85;48.77;;
76217;Laerm;65010;50.190;18.930;2023-03-01T04:34:48;47.32;40.23;65.44;;
76217;Laerm;65010;50.190;18.930;2023-03-01T04:37:54;41.65;38.48;44.29;;
76217;Laerm;65010;50.190;18.930;2023-03-01T04:41:00;46.79;38.11;64.07;;
76217;Laerm;65010;50.190;18.930;2023-03-01T04:44:06;45.69;37.87;64.78;;
76217;Laerm;65010;50.190;18.930;2023-03-01T04:47:13;45.24;37.98;62.39;;
76217;Laerm;65010;50.190;18.930;2023-03-01T04:54:11;43.93;38.11;63.41;;
76217;Laerm;65010;50.190;18.930;2023-03-01T04:57:18;47.04;37.81;67.16;;
76217;Laerm;65010;50.190;18.930;2023-03-01T05:00:24;45.76;37.53;66.57;;
76217;Laerm;65010;50.190;18.930;2023-03-01T05:03:31;43.29;37.85;60.95;;
76217;Laerm;65010;50.190;18.930;2023-03-01T05:06:40;43.02;38.46;57.70;;
76217;Laerm;65010;50.190;18.930;2023-03-01T05:09:50;44.66;38.55;61.62;;
76217;Laerm;65010;50.190;18.930;2023-03-01T05:12:57;45.11;38.18;74.06;;
76217;Laerm;65010;50.190;18.930;2023-03-01T05:16:07;38.01;34.80;44.29;;
76217;Laerm;65010;50.190;18.930;2023-03-01T05:19:15;46.16;34.42;68.40;;
76217;Laerm;65010;50.190;18.930;2023-03-01T05:22:29;48.81;35.38;65.71;;
76217;Laerm;65010;50.190;18.930;2023-03-01T05:25:39;49.03;37.40;67.70;;
76217;Laerm;65010;50.190;18.930;2023-03-01T05:28:46;48.46;37.42;68.42;;
76217;Laerm;65010;50.190;18.930;2023-03-01T05:31:54;48.57;38.63;65.78;;
76217;Laerm;65010;50.190;18.930;2023-03-01T05:35:18;50.17;39.17;66.14;;
76217;Laerm;65010;50.190;18.930;2023-03-01T05:38:24;51.73;39.20;66.87;;
76217;Laerm;65010;50.190;18.930;2023-03-01T05:41:35;48.44;39.01;65.12;;
76217;Laerm;65010;50.190;18.930;2023-03-01T05:44:46;51.13;39.49;69.86;;
76217;Laerm;65010;50.190;18.930;2023-03-01T05:47:53;50.22;39.45;65.28;;
76217;Laerm;65010;50.190;18.930;2023-03-01T05:51:00;49.53;39.42;68.11;;
76217;Laerm;65010;50.190;18.930;2023-03-01T05:54:07;46.85;38.40;64.98;;
76217;Laerm;65010;50.190;18.930;2023-03-01T05:57:16;54.16;38.63;73.18;;
76217;Laerm;65010;50.190;18.930;2023-03-01T06:00:24;46.32;39.05;63.47;;
76217;Laerm;65010;50.190;18.930;2023-03-01T06:03:30;46.78;39.27;64.47;;
76217;Laerm;65010;50.190;18.930;2023-03-01T06:06:40;49.69;39.71;63.98;;
76217;Laerm;65010;50.190;18.930;2023-03-01T06:09:46;50.76;39.06;67.05;;
76217;Laerm;65010;50.190;18.930;2023-03-01T06:12:57;44.29;39.35;61.78;;
76217;Laerm;65010;50.190;18.930;2023-03-01T06:16:05;50.18;39.44;65.95;;
76217;Laerm;65010;50.190;18.930;2023-03-01T06:19:12;47.41;39.23;64.04;;
76217;Laerm;65010;50.190;18.930;2023-03-01T06:22:18;46.37;38.73;65.79;;
76217;Laerm;65010;50.190;18.930;2023-03-01T06:25:27;47.27;38.82;62.11;;
76217;Laerm;65010;50.190;18.930;2023-03-01T06:28:36;46.91;38.79;64.14;;
76217;Laerm;65010;50.190;18.930;2023-03-01T06:31:44;49.16;38.95;67.90;;
76217;Laerm;65010;50.190;18.930;2023-03-01T06:34:50;47.68;38.81;65.72;;
76217;Laerm;65010;50.190;18.930;2023-03-01T06:37:59;50.31;39.50;65.15;;
76217;Laerm;65010;50.190;18.930;2023-03-01T06:41:06;54.03;39.18;78.94;;
76217;Laerm;65010;50.190;18.930;2023-03-01T06:44:16;52.11;39.28;66.03;;
76217;Laerm;65010;50.190;18.930;2023-03-01T06:47:21;51.46;39.20;68.21;;
76217;Laerm;65010;50.190;18.930;2023-03-01T06:50:28;50.35;39.42;65.26;;
76217;Laerm;65010;50.190;18.930;2023-03-01T06:53:41;54.16;39.57;66.09;;
76217;Laerm;65010;50.190;18.930;2023-03-01T06:56:49;52.01;39.38;65.27;;
76217;Laerm;65010;50.190;18.930;2023-03-01T06:59:58;50.84;38.97;68.66;;
76217;Laerm;65010;50.190;18.930;2023-03-01T07:03:08;47.73;38.33;63.98;;
76217;Laerm;65010;50.190;18.930;2023-03-01T07:06:14;49.02;37.96;63.43;;
76217;Laerm;65010;50.190;18.930;2023-03-01T07:09:22;46.59;37.51;61.72;;
76217;Laerm;65010;50.190;18.930;2023-03-01T07:12:29;49.37;39.01;66.36;;
76217;Laerm;65010;50.190;18.930;2023-03-01T07:15:43;48.24;39.35;66.53;;
76217;Laerm;65010;50.190;18.930;2023-03-01T07:18:49;50.69;38.96;68.16;;
76217;Laerm;65010;50.190;18.930;2023-03-01T07:21:56;47.61;38.60;63.19;;
76217;Laerm;65010;50.190;18.930;2023-03-01T07:25:01;52.21;38.66;69.89;;
76217;Laerm;65010;50.190;18.930;2023-03-01T07:28:08;47.13;38.60;68.84;;
76217;Laerm;65010;50.190;18.930;2023-03-01T07:31:17;50.40;38.45;66.04;;
76217;Laerm;65010;50.190;18.930;2023-03-01T07:34:23;47.42;38.75;67.04;;
76217;Laerm;65010;50.190;18.930;2023-03-01T07:37:29;50.31;39.13;68.02;;
76217;Laerm;65010;50.190;18.930;2023-03-01T07:40:38;52.10;39.23;67.17;;
76217;Laerm;65010;50.190;18.930;2023-03-01T07:43:44;50.17;39.04;66.22;;
76217;Laerm;65010;50.190;18.930;2023-03-01T07:46:53;51.15;38.93;64.44;;
76217;Laerm;65010;50.190;18.930;2023-03-01T07:50:01;47.92;36.95;72.03;;
76217;Laerm;65010;50.190;18.930;2023-03-01T07:53:08;48.30;38.72;65.05;;
76217;Laerm;65010;50.190;18.930;2023-03-01T07:56:16;51.21;38.61;68.69;;
76217;Laerm;65010;50.190;18.930;2023-03-01T07:59:23;48.47;38.59;66.36;;
76217;Laerm;65010;50.190;18.930;2023-03-01T08:02:35;46.27;38.96;64.33;;
76217;Laerm;65010;50.190;18.930;2023-03-01T08:05:42;44.89;38.30;64.58;;
76217;Laerm;65010;50.190;18.930;2023-03-01T08:08:48;48.49;38.13;67.50;;
76217;Laerm;65010;50.190;18.930;2023-03-01T08:11:56;47.05;38.20;63.13;;
76217;Laerm;65010;50.190;18.930;2023-03-01T08:15:04;44.87;38.25;61.82;;
76217;Laerm;65010;50.190;18.930;2023-03-01T08:18:13;46.67;37.94;65.10;;
76217;Laerm;65010;50.190;18.930;2023-03-01T08:21:19;47.92;37.98;70.08;;
76217;Laerm;65010;50.190;18.930;2023-03-01T08:24:26;45.11;38.41;58.11;;
76217;Laerm;65010;50.190;18.930;2023-03-01T08:27:32;47.48;38.28;65.43;;
76217;Laerm;65010;50.190;18.930;2023-03-01T08:30:38;46.94;36.03;66.33;;
76217;Laerm;65010;50.190;18.930;2023-03-01T08:33:50;47.94;37.19;67.12;;
76217;Laerm;65010;50.190;18.930;2023-03-01T08:36:58;43.73;36.58;60.14;;
76217;Laerm;65010;50.190;18.930;2023-03-01T08:40:07;48.36;37.14;64.48;;
76217;Laerm;65010;50.190;18.930;2023-03-01T08:43:14;42.89;37.40;60.48;;
76217;Laerm;65010;50.190;18.930;2023-03-01T08:46:20;44.26;37.87;61.67;;
76217;Laerm;65010;50.190;18.930;2023-03-01T08:49:29;50.25;37.46;66.97;;
76217;Laerm;65010;50.190;18.930;2023-03-01T08:52:35;49.93;37.58;67.27;;
76217;Laerm;65010;50.190;18.930;2023-03-01T08:55:42;45.98;37.11;62.28;;
76217;Laerm;65010;50.190;18.930;2023-03-01T08:58:49;46.36;37.22;60.82;;
76217;Laerm;65010;50.190;18.930;2023-03-01T09:01:56;47.48;37.03;64.66;;
76217;Laerm;65010;50.190;18.930;2023-03-01T09:05:05;46.76;37.23;64.04;;
76217;Laerm;65010;50.190;18.930;2023-03-01T09:08:12;41.96;36.90;60.03;;
76217;Laerm;65010;50.190;18.930;2023-03-01T09:11:20;48.06;37.21;65.14;;
76217;Laerm;65010;50.190;18.930;2023-03-01T09:14:27;43.57;37.01;62.22;;
76217;Laerm;65010;50.190;18.930;2023-03-01T09:17:33;46.70;36.99;64.05;;
76217;Laerm;65010;50.190;18.930;2023-03-01T09:20:42;49.85;37.19;66.89;;
76217;Laerm;65010;50.190;18.930;2023-03-01T09:23:48;44.43;35.53;60.12;;
76217;Laerm;65010;50.190;18.930;2023-03-01T09:26:56;46.99;35.54;65.04;;
76217;Laerm;65010;50.190;18.930;2023-03-01T09:30:03;45.42;35.56;65.26;;
76217;Laerm;65010;50.190;18.930;2023-03-01T09:33:10;42.73;36.30;65.67;;
76217;Laerm;65010;50.190;18.930;2023-03-01T09:36:22;47.43;36.39;62.87;;
76217;Laerm;65010;50.190;18.930;2023-03-01T09:39:30;49.04;36.91;64.98;;
76217;Laerm;65010;50.190;18.930;2023-03-01T09:42:51;48.05;37.59;71.88;;
76217;Laerm;65010;50.190;18.930;2023-03-01T09:46:05;47.53;38.07;61.73;;
76217;Laerm;65010;50.190;18.930;2023-03-01T09:49:19;45.75;37.79;66.20;;
76217;Laerm;65010;50.190;18.930;2023-03-01T09:52:38;46.48;37.15;63.68;;
76217;Laerm;65010;50.190;18.930;2023-03-01T09:55:53;44.47;37.26;61.54;;
76217;Laerm;65010;50.190;18.930;2023-03-01T09:59:20;45.05;37.05;61.13;;
76217;Laerm;65010;50.190;18.930;2023-03-01T10:02:41;52.20;36.52;71.14;;
76217;Laerm;65010;50.190;18.930;2023-03-01T10:06:01;46.53;36.36;64.98;;
76217;Laerm;65010;50.190;18.930;2023-03-01T10:09:16;44.57;36.30;62.08;;
76217;Laerm;65010;50.190;18.930;2023-03-01T10:12:35;45.62;35.76;63.73;;
76217;Laerm;65010;50.190;18.930;2023-03-01T10:15:49;49.48;35.56;71.36;;
76217;Laerm;65010;50.190;18.930;2023-03-01T10:19:03;44.21;35.48;61.66;;
76217;Laerm;65010;50.190;18.930;2023-03-01T10:22:18;45.93;35.37;62.23;;
76217;Laerm;65010;50.190;18.930;2023-03-01T10:25:50;47.47;36.76;67.19;;
76217;Laerm;65010;50.190;18.930;2023-03-01T10:29:05;44.86;36.77;65.54;;
76217;Laerm;65010;50.190;18.930;2023-03-01T10:32:16;46.79;36.87;66.16;;
76217;Laerm;65010;50.190;18.930;2023-03-01T10:35:31;44.39;36.70;64.68;;
76217;Laerm;65010;50.190;18.930;2023-03-01T10:38:50;49.46;36.32;67.33;;
76217;Laerm;65010;50.190;18.930;2023-03-01T10:42:04;50.16;37.09;67.75;;
76217;Laerm;65010;50.190;18.930;2023-03-01T10:45:28;47.49;37.13;62.74;;
76217;Laerm;65010;50.190;18.930;2023-03-01T10:48:35;43.80;37.11;58.57;;
76217;Laerm;65010;50.190;18.930;2023-03-01T10:51:46;47.71;37.22;64.55;;
76217;Laerm;65010;50.190;18.930;2023-03-01T10:54:56;46.65;37.15;65.40;;
76217;Laerm;65010;50.190;18.930;2023-03-01T10:58:18;49.48;35.37;67.12;;
76217;Laerm;65010;50.190;18.930;2023-03-01T11:01:27;43.94;35.42;67.99;;
76217;Laerm;65010;50.190;18.930;2023-03-01T11:04:36;45.96;35.50;63.74;;
76217;Laerm;65010;50.190;18.930;2023-03-01T11:07:48;44.56;36.02;61.68;;
76217;Laerm;65010;50.190;18.930;2023-03-01T11:14:36;43.71;36.50;60.36;;
76217;Laerm;65010;50.190;18.930;2023-03-01T11:17:44;43.69;36.73;58.10;;
76217;Laerm;65010;50.190;18.930;2023-03-01T11:21:03;40.99;36.77;57.79;;
76217;Laerm;65010;50.190;18.930;2023-03-01T11:24:14;45.70;36.78;62.14;;
76217;Laerm;65010;50.190;18.930;2023-03-01T11:27:28;45.07;36.60;61.38;;
76217;Laerm;65010;50.190;18.930;2023-03-01T11:30:49;46.90;36.54;63.33;;
76217;Laerm;65010;50.190;18.930;2023-03-01T11:34:19;49.56;36.45;64.33;;
76217;Laerm;65010;50.190;18.930;2023-03-01T11:37:37;44.37;36.13;62.68;;
76217;Laerm;65010;50.190;18.930;2023-03-01T11:40:51;47.24;35.27;62.93;;
76217;Laerm;65010;50.190;18.930;2023-03-01T11:44:11;48.81;35.26;64.96;;
76217;Laerm;65010;50.190;18.930;2023-03-01T11:47:49;47.24;35.32;64.13;;
76217;Laerm;65010;50.190;18.930;2023-03-01T11:51:09;49.49;36.23;72.55;;
76217;Laerm;65010;50.190;18.930;2023-03-01T11:54:43;46.70;36.76;64.09;;
76217;Laerm;65010;50.190;18.930;2023-03-01T11:58:22;45.18;36.69;61.88;;
76217;Laerm;65010;50.190;18.930;2023-03-01T12:01:53;47.45;36.57;61.62;;
76217;Laerm;65010;50.190;18.930;2023-03-01T12:05:48;47.26;36.55;65.00;;
76217;Laerm;65010;50.190;18.930;2023-03-01T12:09:17;41.76;36.21;61.15;;
76217;Laerm;65010;50.190;18.930;2023-03-01T12:12:52;48.63;36.51;68.14;;
76217;Laerm;65010;50.190;18.930;2023-03-01T12:16:25;42.84;36.04;61.51;;
76217;Laerm;65010;50.190;18.930;2023-03-01T12:24:10;40.22;34.72;59.75;;
76217;Laerm;65010;50.190;18.930;2023-03-01T12:38:50;49.32;36.52;73.44;;
76217;Laerm;65010;50.190;18.930;2023-03-01T12:42:18;48.80;36.70;74.95;;
76217;Laerm;65010;50.190;18.930;2023-03-01T12:45:59;46.52;36.92;63.19;;
76217;Laerm;65010;50.190;18.930;2023-03-01T12:49:18;45.56;36.71;62.82;;
76217;Laerm;65010;50.190;18.930;2023-03-01T12:52:39;45.18;36.81;61.44;;
76217;Laerm;65010;50.190;18.930;2023-03-01T12:55:54;42.74;36.72;60.08;;
76217;Laerm;65010;50.190;18.930;2023-03-01T12:59:15;41.83;36.49;61.45;;
76217;Laerm;65010;50.190;18.930;2023-03-01T13:02:33;44.63;36.37;63.38;;
76217;Laerm;65010;50.190;18.930;2023-03-01T13:06:07;45.82;35.08;65.24;;
76217;Laerm;65010;50.190;18.930;2023-03-01T13:09:27;48.40;34.79;64.17;;
76217;Laerm;65010;50.190;18.930;2023-03-01T13:13:11;46.19;34.49;62.63;;
76217;Laerm;65010;50.190;18.930;2023-03-01T13:16:40;45.14;34.91;62.07;;
76217;Laerm;65010;50.190;18.930;2023-03-01T13:19:58;48.65;36.51;64.30;;
76217;Laerm;65010;50.190;18.930;2023-03-01T13:23:12;46.68;36.32;60.80;;
76217;Laerm;65010;50.190;18.930;2023-03-01T13:26:19;50.77;36.53;67.15;;
76217;Laerm;65010;50.190;18.930;2023-03-01T13:29:45;51.33;36.80;70.18;;
76217;Laerm;65010;50.190;18.930;2023-03-01T13:32:51;45.37;36.33;69.76;;
76217;Laerm;65010;50.190;18.930;2023-03-01T13:36:00;50.01;36.58;62.60;;
76217;Laerm;65010;50.190;18.930;2023-03-01T13:39:29;49.25;36.62;61.92;;
76217;Laerm;65010;50.190;18.930;2023-03-01T13:42:43;49.73;36.34;67.01;;
76217;Laerm;65010;50.190;18.930;2023-03-01T13:46:17;45.89;36.54;64.58;;
76217;Laerm;65010;50.190;18.930;2023-03-01T13:49:31;47.70;36.24;61.52;;
76217;Laerm;65010;50.190;18.930;2023-03-01T13:52:57;45.33;34.92;62.96;;
76217;Laerm;65010;50.190;18.930;2023-03-01T13:56:12;48.32;34.83;63.34;;
76217;Laerm;65010;50.190;18.930;2023-03-01T13:59:21;46.35;35.21;62.32;;
76217;Laerm;65010;50.190;18.930;2023-03-01T14:02:32;45.30;34.95;58.66;;
76217;Laerm;65010;50.190;18.930;2023-03-01T14:05:42;45.26;34.95;62.82;;
76217;Laerm;65010;50.190;18.930;2023-03-01T14:09:01;50.13;34.93;67.75;;
76217;Laerm;65010;50.190;18.930;2023-03-01T14:12:29;45.61;34.87;59.53;;
76217;Laerm;65010;50.190;18.930;2023-03-01T14:16:03;48.55;34.68;65.79;;
76217;Laerm;65010;50.190;18.930;2023-03-01T14:19:18;50.78;35.19;71.16;;
76217;Laerm;65010;50.190;18.930;2023-03-01T14:22:41;54.38;35.75;77.27;;
76217;Laerm;65010;50.190;18.930;2023-03-01T14:25:51;50.88;35.88;65.49;;
76217;Laerm;65010;50.190;18.930;2023-03-01T14:28:58;52.37;36.29;75.09;;
76217;Laerm;65010;50.190;18.930;2023-03-01T14:32:18;45.74;35.61;64.07;;
76217;Laerm;65010;50.190;18.930;2023-03-01T14:35:31;48.40;35.17;69.36;;
76217;Laerm;65010;50.190;18.930;2023-03-01T14:38:41;49.69;35.22;65.20;;
76217;Laerm;65010;50.190;18.930;2023-03-01T14:41:49;47.25;34.82;64.22;;
76217;Laerm;65010;50.190;18.930;2023-03-01T14:44:58;47.32;34.93;62.94;;
76217;Laerm;65010;50.190;18.930;2023-03-01T14:48:08;48.26;35.41;63.66;;
76217;Laerm;65010;50.190;18.930;2023-03-01T14:51:17;41.66;35.13;58.70;;
76217;Laerm;65010;50.190;18.930;2023-03-01T14:54:27;47.55;35.26;67.90;;
76217;Laerm;65010;50.190;18.930;2023-03-01T14:57:33;48.11;34.90;62.98;;
76217;Laerm;65010;50.190;18.930;2023-03-01T15:00:52;48.27;34.77;65.11;;
76217;Laerm;65010;50.190;18.930;2023-03-01T15:04:00;49.27;34.81;66.50;;
76217;Laerm;65010;50.190;18.930;2023-03-01T15:07:14;47.39;34.47;64.21;;
76217;Laerm;65010;50.190;18.930;2023-03-01T15:10:24;48.99;34.40;63.98;;
76217;Laerm;65010;50.190;18.930;2023-03-01T15:13:33;48.79;34.47;62.75;;
76217;Laerm;65010;50.190;18.930;2023-03-01T15:16:40;49.83;34.39;68.64;;
76217;Laerm;65010;50.190;18.930;2023-03-01T15:19:48;48.56;34.97;67.41;;
76217;Laerm;65010;50.190;18.930;2023-03-01T15:22:57;45.40;34.53;61.15;;
76217;Laerm;65010;50.190;18.930;2023-03-01T15:26:22;47.84;34.66;64.30;;
76217;Laerm;65010;50.190;18.930;2023-03-01T15:29:30;40.03;34.55;55.86;;
76217;Laerm;65010;50.190;18.930;2023-03-01T15:32:44;49.95;34.66;66.62;;
76217;Laerm;65010;50.190;18.930;2023-03-01T15:35:51;45.99;36.30;59.43;;
76217;Laerm;65010;50.190;18.930;2023-03-01T15:39:03;50.34;36.14;73.92;;
76217;Laerm;65010;50.190;18.930;2023-03-01T15:42:12;48.48;35.86;67.15;;
76217;Laerm;65010;50.190;18.930;2023-03-01T15:45:25;47.81;36.38;68.40;;
76217;Laerm;65010;50.190;18.930;2023-03-01T15:48:32;44.18;37.45;62.71;;
76217;Laerm;65010;50.190;18.930;2023-03-01T15:51:39;50.94;37.47;68.41;;
76217;Laerm;65010;50.190;18.930;2023-03-01T15:54:48;47.78;37.14;66.11;;
76217;Laerm;65010;50.190;18.930;2023-03-01T15:58:00;48.52;35.85;64.56;;
76217;Laerm;65010;50.190;18.930;2023-03-01T16:01:12;45.19;36.08;59.45;;
76217;Laerm;65010;50.190;18.930;2023-03-01T16:04:20;49.27;36.26;64.94;;
76217;Laerm;65010;50.190;18.930;2023-03-01T16:07:26;47.90;36.56;63.11;;
76217;Laerm;65010;50.190;18.930;2023-03-01T16:10:38;44.42;36.47;60.50;;
76217;Laerm;65010;50.190;18.930;2023-03-01T16:13:46;48.69;36.22;63.70;;
76217;Laerm;65010;50.190;18.930;2023-03-01T16:16:53;49.97;36.71;66.44;;
76217;Laerm;65010;50.190;18.930;2023-03-01T16:19:59;49.54;36.47;63.52;;
76217;Laerm;65010;50.190;18.930;2023-03-01T16:23:11;45.72;36.07;63.21;;
76217;Laerm;65010;50.190;18.930;2023-03-01T16:26:20;48.90;36.07;64.92;;
76217;Laerm;65010;50.190;18.930;2023-03-01T16:29:27;48.89;36.60;63.25;;
76217;Laerm;65010;50.190;18.930;2023-03-01T16:32:32;46.36;36.37;63.84;;
76217;Laerm;65010;50.190;18.930;2023-03-01T16:35:40;45.09;36.40;60.76;;
76217;Laerm;65010;50.190;18.930;2023-03-01T16:38:46;46.21;35.98;62.47;;
76217;Laerm;65010;50.190;18.930;2023-03-01T16:41:56;46.69;36.30;65.47;;
76217;Laerm;65010;50.190;18.930;2023-03-01T16:45:07;49.26;37.38;69.70;;
76217;Laerm;65010;50.190;18.930;2023-03-01T16:48:26;54.87;37.15;74.95;;
76217;Laerm;65010;50.190;18.930;2023-03-01T16:51:32;47.58;37.57;61.31;;
76217;Laerm;65010;50.190;18.930;2023-03-01T16:54:39;50.59;37.88;65.43;;
76217;Laerm;65010;50.190;18.930;2023-03-01T16:57:48;47.89;37.31;63.76;;
76217;Laerm;65010;50.190;18.930;2023-03-01T17:00:56;49.52;34.75;63.92;;
76217;Laerm;65010;50.190;18.930;2023-03-01T17:04:05;50.13;34.60;73.64;;
76217;Laerm;65010;50.190;18.930;2023-03-01T17:07:12;55.27;34.38;78.33;;
76217;Laerm;65010;50.190;18.930;2023-03-01T17:10:18;47.95;34.66;64.85;;
76217;Laerm;65010;50.190;18.930;2023-03-01T17:13:27;45.40;36.92;62.80;;
76217;Laerm;65010;50.190;18.930;2023-03-01T17:16:33;48.81;36.93;61.67;;
76217;Laerm;65010;50.190;18.930;2023-03-01T17:19:40;47.01;37.69;62.09;;
76217;Laerm;65010;50.190;18.930;2023-03-01T17:22:46;46.06;38.59;61.48;;
76217;Laerm;65010;50.190;18.930;2023-03-01T17:25:55;48.26;38.97;61.70;;
76217;Laerm;65010;50.190;18.930;2023-03-01T17:29:04;47.39;37.62;60.38;;
76217;Laerm;65010;50.190;18.930;2023-03-01T17:32:12;44.42;37.48;63.13;;
76217;Laerm;65010;50.190;18.930;2023-03-01T17:35:18;48.43;37.97;62.07;;
76217;Laerm;65010;50.190;18.930;2023-03-01T17:38:25;46.17;37.79;60.13;;
76217;Laerm;65010;50.190;18.930;2023-03-01T17:45:17;44.69;37.61;58.66;;
76217;Laerm;65010;50.190;18.930;2023-03-01T17:48:25;46.30;37.61;61.45;;
76217;Laerm;65010;50.190;18.930;2023-03-01T17:51:31;43.69;35.51;63.55;;
76217;Laerm;65010;50.190;18.930;2023-03-01T17:54:40;43.28;36.78;59.92;;
76217;Laerm;65010;50.190;18.930;2023-03-01T17:57:47;48.21;37.34;63.05;;
76217;Laerm;65010;50.190;18.930;2023-03-01T18:01:07;48.68;37.98;67.13;;
76217;Laerm;65010;50.190;18.930;2023-03-01T18:04:14;46.89;37.52;61.97;;
76217;Laerm;65010;50.190;18.930;2023-03-01T18:07:21;48.33;37.68;68.46;;
76217;Laerm;65010;50.190;18.930;2023-03-01T18:10:27;50.73;37.60;70.79;;
76217;Laerm;65010;50.190;18.930;2023-03-01T18:13:33;39.72;37.35;52.91;;
76217;Laerm;65010;50.190;18.930;2023-03-01T18:16:48;47.08;34.70;66.42;;
76217;Laerm;65010;50.190;18.930;2023-03-01T18:20:09;45.44;34.87;65.22;;
76217;Laerm;65010;50.190;18.930;2023-03-01T18:23:17;43.68;34.73;62.68;;
76217;Laerm;65010;50.190;18.930;2023-03-01T18:26:23;48.18;35.08;66.67;;
76217;Laerm;65010;50.190;18.930;2023-03-01T18:29:31;44.45;36.94;61.09;;
76217;Laerm;65010;50.190;18.930;2023-03-01T18:32:41;47.01;36.62;63.72;;
76217;Laerm;65010;50.190;18.930;2023-03-01T18:35:47;47.63;36.52;65.09;;
76217;Laerm;65010;50.190;18.930;2023-03-01T18:38:54;46.45;37.97;66.87;;
76217;Laerm;65010;50.190;18.930;2023-03-01T18:42:00;47.25;38.14;64.38;;
76217;Laerm;65010;50.190;18.930;2023-03-01T18:45:09;45.57;37.55;60.75;;
76217;Laerm;65010;50.190;18.930;2023-03-01T18:48:18;45.60;37.49;63.61;;
76217;Laerm;65010;50.190;18.930;2023-03-01T18:51:27;44.67;37.40;66.61;;
76217;Laerm;65010;50.190;18.930;2023-03-01T18:54:35;40.98;37.31;57.84;;
76217;Laerm;65010;50.190;18.930;2023-03-01T18:57:42;45.79;37.23;64.29;;
76217;Laerm;65010;50.190;18.930;2023-03-01T19:00:47;45.18;37.05;60.14;;
76217;Laerm;65010;50.190;18.930;2023-03-01T19:03:57;44.84;37.09;65.70;;